Time;durP1;ratioP1;P1;durP2;ratioP2;P2;SDS_P1;SDS_P2;PMS_P1;PMS_P2;Temp;Humidity;BMP_temperature;BMP_pressure;BME280_temperature;BME280_humidity;BME280_pressure;Samples;Min_cycle;Max_cycle;Signal;HPM_P1;HPM_P2
2023/05/18 00:02:32;;;;;;;4.13;2.08;;;;;;;25.46;35.73;101370.16;20916146;28;20098;-64
2023/05/18 00:12:34;;;;;;;2.20;1.80;;;;;;;25.44;35.68;101391.22;20967647;28;20479;-65
2023/05/18 00:22:35;;;;;;;2.90;2.10;;;;;;;25.50;35.86;101424.47;20972757;28;20115;-64
2023/05/18 00:32:36;;;;;;;2.50;2.13;;;;;;;25.48;35.84;101453.94;20985940;28;20099;-63
2023/05/18 00:42:38;;;;;;;3.20;2.15;;;;;;;25.55;35.71;101476.81;20922325;28;20135;-65
2023/05/18 00:52:40;;;;;;;5.03;2.33;;;;;;;25.52;35.67;101494.22;20926243;28;20044;-65
2023/05/18 01:02:44;;;;;;;4.95;2.80;;;;;;;25.45;35.48;101511.41;20937320;28;20048;-64
2023/05/18 01:12:52;;;;;;;5.97;1.95;;;;;;;25.42;35.88;101534.41;20955251;28;20049;-65
2023/05/18 01:23:00;;;;;;;6.03;2.38;;;;;;;25.45;35.57;101555.38;20975284;28;20094;-64
2023/05/18 01:33:12;;;;;;;3.35;1.65;;;;;;;25.40;35.48;101575.06;20988922;28;20075;-64
2023/05/18 01:43:19;;;;;;;3.67;2.25;;;;;;;25.38;35.40;101585.72;20982905;28;20032;-65
2023/05/18 01:53:34;;;;;;;4.37;2.10;;;;;;;25.42;35.56;101601.63;20989257;28;20056;-64
2023/05/18 02:03:35;;;;;;;4.45;2.10;;;;;;;25.44;36.02;101615.38;21001855;28;20044;-63
2023/05/18 02:13:37;;;;;;;12.82;2.63;;;;;;;25.46;35.78;101624.31;21006071;28;20057;-63
2023/05/18 02:23:39;;;;;;;6.95;2.70;;;;;;;25.11;35.47;101587.13;20998159;28;20367;-64
2023/05/18 02:33:40;;;;;;;9.63;2.88;;;;;;;25.33;35.29;101643.47;20937825;28;20381;-65
2023/05/18 02:43:41;;;;;;;9.32;2.40;;;;;;;25.32;35.27;101669.81;20919525;28;20041;-65
2023/05/18 02:53:43;;;;;;;12.65;2.60;;;;;;;25.38;35.11;101701.41;21002782;28;20144;-64
2023/05/18 03:03:46;;;;;;;9.30;2.65;;;;;;;25.40;35.37;101709.56;20968492;28;20045;-63
2023/05/18 03:13:48;;;;;;;11.27;2.65;;;;;;;25.34;35.14;101734.81;20933151;28;20048;-64
2023/05/18 03:23:49;;;;;;;14.15;2.90;;;;;;;25.26;35.75;101757.00;20997027;28;20044;-62
2023/05/18 03:33:51;;;;;;;9.65;2.95;;;;;;;25.30;35.10;101784.16;20998176;28;20037;-63
2023/05/18 03:43:52;;;;;;;7.90;2.75;;;;;;;25.12;35.68;101775.59;20929480;28;20098;-63
2023/05/18 03:53:53;;;;;;;8.40;2.30;;;;;;;25.24;35.42;101813.28;20997995;28;20043;-63
2023/05/18 04:03:56;;;;;;;10.43;2.75;;;;;;;25.20;35.32;101826.22;20988503;28;20036;-63
2023/05/18 04:13:59;;;;;;;7.57;2.47;;;;;;;25.19;35.54;101855.34;20996923;28;20052;-62
2023/05/18 04:24:04;;;;;;;7.57;2.70;;;;;;;25.04;35.51;101844.19;20925769;28;20467;-63
2023/05/18 04:34:05;;;;;;;8.43;2.78;;;;;;;25.24;35.48;101877.72;20911085;28;20037;-63
2023/05/18 04:44:08;;;;;;;9.93;2.67;;;;;;;25.25;34.88;101893.44;20965671;28;20098;-63
2023/05/18 04:54:12;;;;;;;8.95;2.38;;;;;;;25.18;34.47;101904.09;20993077;28;20360;-65
2023/05/18 05:04:16;;;;;;;8.60;2.72;;;;;;;25.15;35.31;101921.47;20991874;28;20041;-64
2023/05/18 05:14:20;;;;;;;4.00;2.10;;;;;;;25.20;34.29;101943.88;20992669;28;20488;-64
2023/05/18 05:24:24;;;;;;;5.45;1.80;;;;;;;24.88;34.17;101915.38;20991848;28;20037;-65
2023/05/18 05:34:26;;;;;;;3.83;1.92;;;;;;;25.11;34.55;101993.22;20992104;28;20537;-65
2023/05/18 05:44:27;;;;;;;3.28;1.90;;;;;;;25.07;34.47;101990.13;20991620;28;20032;-64
2023/05/18 05:54:28;;;;;;;4.57;1.90;;;;;;;25.05;34.62;102014.72;20995642;28;20040;-65
2023/05/18 06:04:30;;;;;;;5.63;1.85;;;;;;;25.00;34.20;102009.16;21006890;28;20027;-65
2023/05/18 06:14:31;;;;;;;1.50;1.23;;;;;;;25.04;33.87;102037.44;21005808;28;20041;-65
2023/05/18 06:24:32;;;;;;;2.10;1.55;;;;;;;24.99;33.57;102041.06;21005132;28;20098;-65
2023/05/18 06:34:34;;;;;;;1.65;1.30;;;;;;;24.94;33.93;102038.28;21004010;28;20109;-65
2023/05/18 06:44:35;;;;;;;3.33;1.55;;;;;;;24.92;33.44;102054.50;21002971;28;20040;-65
2023/05/18 06:54:37;;;;;;;3.38;1.40;;;;;;;24.89;33.55;102051.47;21002771;28;20044;-65
2023/05/18 07:04:38;;;;;;;2.08;1.50;;;;;;;24.85;33.36;102052.00;21001164;28;20438;-65
2023/05/18 07:14:39;;;;;;;1.50;1.33;;;;;;;24.83;33.31;102059.88;21001027;28;20503;-66
2023/05/18 07:24:42;;;;;;;1.88;1.30;;;;;;;24.81;33.08;102067.69;20999752;28;20049;-64
2023/05/18 07:34:49;;;;;;;1.33;1.20;;;;;;;24.66;33.83;102048.09;20999218;28;20442;-62
2023/05/18 07:44:51;;;;;;;1.85;1.10;;;;;;;24.64;32.96;102075.53;20998468;28;20181;-64
2023/05/18 07:54:54;;;;;;;2.25;1.15;;;;;;;24.66;32.95;102097.66;20997563;28;20036;-64
2023/05/18 08:04:58;;;;;;;1.25;1.10;;;;;;;24.70;33.12;102113.59;20996981;28;20433;-64
2023/05/18 08:14:59;;;;;;;1.33;1.20;;;;;;;24.42;33.28;102069.34;20996004;28;20475;-64
2023/05/18 08:25:01;;;;;;;3.22;1.20;;;;;;;24.67;33.25;102128.16;20995203;28;20086;-64
2023/05/18 08:35:08;;;;;;;1.10;1.00;;;;;;;24.58;33.43;102113.88;20994714;28;20101;-64
2023/05/18 08:45:11;;;;;;;;;;;;;;;24.60;33.13;102133.16;20994628;28;20086;-64
2023/05/18 08:55:18;;;;;;;1.10;1.00;;;;;;;24.59;33.45;102140.72;20993932;28;20343;-65
2023/05/18 09:05:21;;;;;;;1.52;1.10;;;;;;;24.46;33.04;102138.44;20993269;28;20066;-64
2023/05/18 09:15:29;;;;;;;1.42;1.00;;;;;;;24.47;33.09;102139.31;20992140;28;20045;-65
2023/05/18 09:25:35;;;;;;;1.90;1.00;;;;;;;24.46;33.16;102154.41;20992522;28;20044;-65
2023/05/18 09:35:36;;;;;;;1.50;1.08;;;;;;;24.47;33.27;102178.50;21006971;28;20487;-65
2023/05/18 09:45:42;;;;;;;1.73;1.30;;;;;;;24.44;33.18;102205.06;21008025;28;20384;-65
2023/05/18 09:55:48;;;;;;;1.20;1.10;;;;;;;24.13;32.96;102161.25;21007161;28;20043;-65
2023/05/18 10:05:50;;;;;;;1.05;1.00;;;;;;;24.29;32.91;102217.00;21005801;28;20044;-64
2023/05/18 10:15:57;;;;;;;1.10;1.00;;;;;;;24.37;32.81;102256.78;21005548;28;20045;-65
2023/05/18 10:25:59;;;;;;;1.53;1.30;;;;;;;24.15;33.16;102241.00;21004577;28;20052;-65
2023/05/18 10:36:03;;;;;;;1.88;1.52;;;;;;;24.31;32.78;102281.91;21003872;28;20044;-65
2023/05/18 10:46:08;;;;;;;2.35;1.70;;;;;;;24.26;33.05;102287.47;21001929;28;20032;-63
2023/05/18 10:56:10;;;;;;;2.03;1.67;;;;;;;24.26;32.85;102321.03;21002553;28;20036;-65
2023/05/18 11:06:22;;;;;;;3.88;1.95;;;;;;;24.24;33.00;102328.88;21001772;28;20040;-64
2023/05/18 11:16:33;;;;;;;2.25;1.88;;;;;;;24.25;32.72;102338.09;21000670;28;20387;-64
2023/05/18 11:26:42;;;;;;;1.88;1.70;;;;;;;24.06;33.00;102340.50;20999676;28;20040;-64
2023/05/18 11:36:44;;;;;;;2.83;2.00;;;;;;;24.15;32.91;102380.00;20999237;28;20556;-65
2023/05/18 11:47:00;;;;;;;3.25;2.10;;;;;;;24.09;33.25;102390.28;20998296;28;20484;-64
2023/05/18 11:57:04;;;;;;;2.58;2.03;;;;;;;24.14;33.05;102384.72;20996513;28;20450;-65
2023/05/18 12:07:09;;;;;;;2.38;1.92;;;;;;;24.11;33.07;102404.84;20996204;28;20036;-66
2023/05/18 12:17:10;;;;;;;4.80;3.00;;;;;;;24.07;32.67;102412.09;20995208;28;20102;-65
2023/05/18 12:27:15;;;;;;;3.63;2.58;;;;;;;24.03;33.06;102424.91;20994643;28;20045;-65
2023/05/18 12:37:16;;;;;;;2.72;2.20;;;;;;;24.01;33.32;102404.78;20994382;28;20075;-64
2023/05/18 12:47:18;;;;;;;3.10;2.28;;;;;;;23.88;32.97;102410.81;20994104;28;20472;-64
2023/05/18 12:57:25;;;;;;;3.22;2.47;;;;;;;23.98;33.02;102438.84;20992480;28;20365;-65
2023/05/18 13:07:30;;;;;;;2.67;2.10;;;;;;;23.87;33.02;102414.69;20992067;28;20388;-64
2023/05/18 13:17:31;;;;;;;3.72;2.25;;;;;;;23.82;33.35;102402.38;20992383;28;20072;-64
2023/05/18 13:27:33;;;;;;;3.15;2.30;;;;;;;23.88;33.20;102416.41;20991761;28;20036;-64
2023/05/18 13:37:34;;;;;;;4.30;2.55;;;;;;;24.05;33.27;102442.25;20991673;28;20055;-64
2023/05/18 13:47:42;;;;;;;3.63;2.42;;;;;;;24.08;33.19;102450.13;20991353;28;20029;-64
2023/05/18 13:57:44;;;;;;;3.33;2.30;;;;;;;23.93;33.15;102433.22;20990741;28;20041;-64
2023/05/18 14:07:46;;;;;;;3.63;2.35;;;;;;;24.08;33.01;102455.72;20990075;28;20075;-64
2023/05/18 14:17:47;;;;;;;2.72;2.25;;;;;;;24.13;33.16;102475.34;20997798;28;20067;-64
2023/05/18 14:27:51;;;;;;;2.88;2.17;;;;;;;24.13;33.17;102489.31;21004124;28;20040;-64
2023/05/18 14:37:55;;;;;;;3.05;2.00;;;;;;;24.12;33.37;102487.63;21003963;28;20049;-65
2023/05/18 14:47:57;;;;;;;2.30;1.98;;;;;;;24.11;33.20;102499.94;21003065;28;20040;-65
2023/05/18 14:58:01;;;;;;;3.03;2.20;;;;;;;24.16;33.52;102516.75;21002511;28;20474;-64
2023/05/18 15:08:02;;;;;;;3.08;2.10;;;;;;;24.16;33.40;102521.50;21001635;28;20442;-65
2023/05/18 15:18:03;;;;;;;3.88;2.50;;;;;;;23.95;33.50;102484.09;21001008;28;20460;-64
2023/05/18 15:28:09;;;;;;;3.40;2.25;;;;;;;24.07;33.42;102507.16;20999206;28;20049;-63
2023/05/18 15:38:11;;;;;;;2.60;1.80;;;;;;;24.15;33.58;102528.22;20999362;28;20048;-64
2023/05/18 15:48:12;;;;;;;2.70;2.20;;;;;;;24.16;33.32;102530.75;20998369;28;20111;-64
2023/05/18 15:58:16;;;;;;;2.65;1.80;;;;;;;24.19;33.52;102523.75;20997312;28;20032;-64
2023/05/18 16:08:19;;;;;;;2.40;1.77;;;;;;;24.16;33.77;102519.56;20996469;28;20044;-64
2023/05/18 16:18:20;;;;;;;2.40;1.98;;;;;;;24.21;33.74;102522.41;20995392;28;20089;-64
2023/05/18 16:28:24;;;;;;;2.05;1.60;;;;;;;24.22;33.34;102518.50;20994891;28;20070;-65
2023/05/18 16:38:26;;;;;;;2.70;1.60;;;;;;;23.95;33.33;102467.34;20993674;28;20082;-65
2023/05/18 16:48:30;;;;;;;1.70;1.55;;;;;;;24.11;33.73;102483.16;20993629;28;20396;-66
2023/05/18 16:58:31;;;;;;;2.92;1.70;;;;;;;24.23;33.65;102492.19;20993263;28;20388;-64
2023/05/18 17:08:33;;;;;;;2.28;1.60;;;;;;;24.30;33.75;102484.44;20992537;28;20082;-64
2023/05/18 17:18:37;;;;;;;2.17;1.65;;;;;;;24.26;33.89;102469.28;20992503;28;20434;-64
2023/05/18 17:28:38;;;;;;;2.08;1.60;;;;;;;24.28;33.74;102483.88;20991602;28;20052;-64
2023/05/18 17:38:39;;;;;;;2.42;1.77;;;;;;;24.34;33.73;102481.97;20991725;28;20033;-64
2023/05/18 17:48:44;;;;;;;2.15;1.95;;;;;;;24.35;33.68;102467.69;20992905;28;20040;-64
2023/05/18 17:58:52;;;;;;;1.58;1.48;;;;;;;24.38;33.88;102465.53;21006982;28;20028;-64
2023/05/18 18:08:56;;;;;;;3.35;1.83;;;;;;;24.40;33.59;102446.50;21005927;28;20037;-64
2023/05/18 18:19:03;;;;;;;2.58;1.60;;;;;;;24.38;33.58;102437.53;21005151;28;20364;-64
2023/05/18 18:29:08;;;;;;;2.20;1.70;;;;;;;24.42;33.98;102433.06;21004469;28;20048;-64
2023/05/18 18:39:16;;;;;;;2.00;1.58;;;;;;;24.46;33.93;102423.03;21004487;28;20106;-65
2023/05/18 18:49:20;;;;;;;3.60;1.67;;;;;;;24.27;33.88;102387.06;21003190;28;20063;-64
2023/05/18 18:59:21;;;;;;;2.17;1.60;;;;;;;24.50;33.92;102424.16;21001829;28;20032;-64
2023/05/18 19:09:22;;;;;;;1.92;1.77;;;;;;;24.48;33.77;102401.22;21001238;28;20445;-64
2023/05/18 19:19:26;;;;;;;2.63;1.63;;;;;;;24.22;33.60;102366.59;21001015;28;20549;-64
2023/05/18 19:29:28;;;;;;;1.23;1.10;;;;;;;24.51;33.86;102400.66;21000009;28;20040;-64
2023/05/18 19:39:35;;;;;;;2.13;1.73;;;;;;;24.50;33.78;102396.19;20999656;28;20110;-64
2023/05/18 19:49:36;;;;;;;1.50;1.40;;;;;;;24.21;33.75;102343.38;20998371;28;20096;-64
2023/05/18 19:59:41;;;;;;;1.70;1.30;;;;;;;24.53;33.44;102379.72;20997265;28;20037;-64
2023/05/18 20:09:42;;;;;;;2.20;1.60;;;;;;;24.53;33.77;102390.06;20996591;28;20356;-64
2023/05/18 20:19:49;;;;;;;1.63;1.35;;;;;;;24.57;33.61;102385.63;20995328;28;20438;-64
2023/05/18 20:29:50;;;;;;;2.80;1.65;;;;;;;24.51;33.81;102373.56;20994506;28;20102;-64
2023/05/18 20:39:53;;;;;;;2.55;1.75;;;;;;;24.54;33.93;102363.75;20993890;28;20036;-64
2023/05/18 20:49:57;;;;;;;2.70;1.58;;;;;;;24.24;33.85;102331.66;20993327;28;20458;-64
2023/05/18 20:59:59;;;;;;;1.60;1.48;;;;;;;24.53;34.06;102384.47;20993301;28;20071;-66
2023/05/18 21:10:01;;;;;;;2.88;1.67;;;;;;;24.57;34.01;102380.00;20992733;28;20041;-64
2023/05/18 21:20:03;;;;;;;1.58;1.48;;;;;;;24.49;34.10;102366.53;20992671;28;20032;-67
2023/05/18 21:30:05;;;;;;;1.88;1.40;;;;;;;24.57;34.06;102380.00;21004123;28;20102;-64
2023/05/18 21:40:07;;;;;;;1.83;1.67;;;;;;;24.57;34.06;102382.81;21007946;28;20545;-65
2023/05/18 21:50:12;;;;;;;1.95;1.55;;;;;;;24.54;34.38;102386.16;21007593;28;20049;-65
2023/05/18 22:00:15;;;;;;;2.10;1.40;;;;;;;24.56;33.99;102392.31;21006885;28;20055;-65
2023/05/18 22:10:17;;;;;;;1.90;1.50;;;;;;;24.57;34.08;102402.41;21006181;28;20040;-65
2023/05/18 22:20:18;;;;;;;1.60;1.42;;;;;;;24.50;34.10;102402.63;21005962;28;20044;-67
2023/05/18 22:30:22;;;;;;;3.03;1.83;;;;;;;24.57;33.83;102403.25;21004537;28;20492;-66
2023/05/18 22:40:24;;;;;;;2.28;1.50;;;;;;;24.56;34.38;102411.91;21004337;28;20045;-65
2023/05/18 22:50:26;;;;;;;3.30;1.80;;;;;;;24.54;34.14;102411.31;21003553;28;20040;-64
2023/05/18 23:00:27;;;;;;;2.40;1.85;;;;;;;24.55;33.78;102424.19;21002376;28;20055;-66
2023/05/18 23:10:29;;;;;;;2.72;1.58;;;;;;;24.45;33.98;102413.78;21002262;28;20064;-65
2023/05/18 23:20:33;;;;;;;3.08;2.15;;;;;;;24.54;33.79;102436.53;21001423;28;20052;-66
2023/05/18 23:30:34;;;;;;;3.88;1.45;;;;;;;24.59;34.08;102444.94;21000050;28;20056;-65
2023/05/18 23:40:38;;;;;;;2.40;1.40;;;;;;;24.56;33.97;102439.91;20999136;28;20032;-64
2023/05/18 23:50:50;;;;;;;2.17;1.75;;;;;;;24.50;33.90;102432.56;20996944;28;20045;-64
